Terminal Aerodrome Forecast
Issued by NWS

Home | Current Version | Previous Version | Text Only | Print | Product List | Glossary On
Versions: 1 2 3 4 5 6 7 8 9 10 11 12 13 14 15 16 17 18 19 20 21 22 23
000
FTUS45 KRIW 231121
TAFJAC
TAF
KJAC 231121Z 2312/2412 VRB05KT P6SM OVC045
     FM231700 20012G18KT P6SM SCT030 BKN050
     FM240000 22014G20KT P6SM VCSH BKN070
     FM240600 22018G30KT P6SM -SHRA SCT025 BKN040
      AMD LTD TO CLD VIS AND WIND=

USA.gov is the U.S. government's official web portal to all federal, state and local government web resources and services.